Time;durP1;ratioP1;P1;durP2;ratioP2;P2;SDS_P1;SDS_P2;PMS_P1;PMS_P2;Temp;Humidity;BMP_temperature;BMP_pressure;BME280_temperature;BME280_humidity;BME280_pressure;Samples;Min_cycle;Max_cycle;Signal;HPM_P1;HPM_P2
2023/03/12 00:02:18;;;;;;;5.67;5.27;;;;;;;;;;4942506;29;20192;-81
2023/03/12 00:04:44;;;;;;;6.07;5.38;;;;;;;;;;4943051;29;20435;-82
2023/03/12 00:07:10;;;;;;;6.23;5.70;;;;;;;;;;4939948;29;20195;-82
2023/03/12 00:09:37;;;;;;;6.15;5.65;;;;;;;;;;4920171;29;20959;-82
2023/03/12 00:12:03;;;;;;;5.93;5.32;;;;;;;;;;4931697;29;20283;-79
2023/03/12 00:14:29;;;;;;;7.90;6.28;;;;;;;;;;4958410;29;20218;-82
2023/03/12 00:16:54;;;;;;;7.13;5.93;;;;;;;;;;4956218;29;20301;-82
2023/03/12 00:19:20;;;;;;;5.40;5.10;;;;;;;;;;4945641;28;20964;-81
2023/03/12 00:21:46;;;;;;;5.60;4.97;;;;;;;;;;4939978;29;20440;-81
2023/03/12 00:24:13;;;;;;;6.68;5.93;;;;;;;;;;4933410;29;20222;-81
2023/03/12 00:26:39;;;;;;;6.07;5.60;;;;;;;;;;4950516;29;20179;-82
2023/03/12 00:29:05;;;;;;;6.28;5.13;;;;;;;;;;4929840;29;20215;-82
2023/03/12 00:31:32;;;;;;;7.32;5.75;;;;;;;;;;4936086;29;20210;-82
2023/03/12 00:33:59;;;;;;;7.05;4.93;;;;;;;;;;4929055;29;20545;-82
2023/03/12 00:36:26;;;;;;;7.57;5.70;;;;;;;;;;4940918;29;20211;-81
2023/03/12 00:38:53;;;;;;;5.53;5.23;;;;;;;;;;4910436;28;1124130;-81
2023/03/12 00:41:19;;;;;;;5.50;5.10;;;;;;;;;;4955599;28;20269;-81
2023/03/12 00:43:48;;;;;;;6.18;5.13;;;;;;;;;;4950836;28;20431;-82
2023/03/12 00:46:14;;;;;;;6.47;4.85;;;;;;;;;;4941662;29;20250;-81
2023/03/12 00:48:40;;;;;;;5.60;5.10;;;;;;;;;;4955137;29;20191;-82
2023/03/12 00:51:08;;;;;;;8.00;6.10;;;;;;;;;;4959260;29;20185;-80
2023/03/12 00:53:34;;;;;;;5.73;5.30;;;;;;;;;;4944431;28;20414;-81
2023/03/12 00:56:00;;;;;;;4.97;4.55;;;;;;;;;;4931517;29;20468;-81
2023/03/12 00:58:26;;;;;;;5.20;4.90;;;;;;;;;;4944234;28;20190;-81
2023/03/12 01:00:52;;;;;;;7.77;5.20;;;;;;;;;;4935084;29;20443;-81
2023/03/12 01:03:18;;;;;;;4.85;4.55;;;;;;;;;;4925039;29;20470;-81
2023/03/12 01:05:44;;;;;;;6.53;5.00;;;;;;;;;;4919064;29;20184;-82
2023/03/12 01:08:10;;;;;;;5.78;5.10;;;;;;;;;;4935426;29;20542;-81
2023/03/12 01:10:37;;;;;;;10.60;5.22;;;;;;;;;;4934635;29;20180;-81
2023/03/12 01:13:03;;;;;;;5.90;5.50;;;;;;;;;;4932158;29;20207;-81
2023/03/12 01:15:29;;;;;;;5.60;5.20;;;;;;;;;;4948319;28;20744;-81
2023/03/12 01:17:55;;;;;;;5.63;5.23;;;;;;;;;;4935954;29;20750;-81
2023/03/12 01:20:22;;;;;;;7.80;4.97;;;;;;;;;;4934613;28;20455;-81
2023/03/12 01:22:48;;;;;;;5.25;4.63;;;;;;;;;;4930657;29;20432;-81
2023/03/12 01:25:14;;;;;;;5.63;5.30;;;;;;;;;;4939809;28;20287;-81
2023/03/12 01:27:40;;;;;;;5.20;4.63;;;;;;;;;;4918320;29;20226;-81
2023/03/12 01:30:06;;;;;;;4.93;4.40;;;;;;;;;;4957009;28;20537;-81
2023/03/12 01:32:32;;;;;;;3.60;3.57;;;;;;;;;;4925928;29;20415;-82
2023/03/12 01:34:59;;;;;;;10.13;5.13;;;;;;;;;;4943193;28;20682;-82
2023/03/12 01:37:25;;;;;;;4.10;3.90;;;;;;;;;;4930707;29;20239;-80
2023/03/12 01:39:51;;;;;;;4.57;2.80;;;;;;;;;;4955143;28;20466;-81
2023/03/12 01:42:18;;;;;;;4.22;3.17;;;;;;;;;;4947201;28;20441;-82
2023/03/12 01:45:00;;;;;;;3.38;2.50;;;;;;;;;;4959054;28;20277;-80
2023/03/12 01:47:26;;;;;;;2.25;2.15;;;;;;;;;;4932128;29;20229;-82
2023/03/12 01:49:53;;;;;;;5.80;2.45;;;;;;;;;;4929863;29;20191;-81
2023/03/12 01:52:21;;;;;;;3.25;2.65;;;;;;;;;;4934218;28;20191;-80
2023/03/12 01:54:47;;;;;;;2.97;2.75;;;;;;;;;;4961711;28;20521;-81
2023/03/12 01:57:15;;;;;;;3.87;1.97;;;;;;;;;;4946740;28;20231;-80
2023/03/12 01:59:43;;;;;;;2.40;2.22;;;;;;;;;;4952099;28;20700;-81
2023/03/12 02:02:10;;;;;;;8.03;2.50;;;;;;;;;;4965608;28;20661;-79
2023/03/12 02:04:37;;;;;;;6.63;2.33;;;;;;;;;;4934920;29;20489;-81
2023/03/12 02:07:04;;;;;;;2.25;2.08;;;;;;;;;;4964973;28;20374;-80
2023/03/12 02:09:32;;;;;;;2.28;2.17;;;;;;;;;;4954749;28;20428;-80
2023/03/12 02:11:58;;;;;;;2.78;2.28;;;;;;;;;;4965470;28;20197;-80
2023/03/12 02:14:24;;;;;;;11.65;3.28;;;;;;;;;;4935405;28;20289;-80
2023/03/12 02:16:50;;;;;;;5.88;1.80;;;;;;;;;;4952901;28;20211;-80
2023/03/12 02:19:37;;;;;;;1.77;1.70;;;;;;;;;;4952005;28;20206;-80
2023/03/12 02:22:03;;;;;;;1.88;1.77;;;;;;;;;;4910337;29;20288;-81
2023/03/12 02:24:45;;;;;;;5.10;2.30;;;;;;;;;;4964738;28;20570;-81
2023/03/12 02:27:12;;;;;;;2.80;2.50;;;;;;;;;;4950122;29;20300;-80
2023/03/12 02:29:38;;;;;;;2.20;2.10;;;;;;;;;;4963331;28;20983;-79
2023/03/12 02:32:05;;;;;;;2.22;2.03;;;;;;;;;;4957721;28;20194;-79
2023/03/12 02:34:32;;;;;;;2.05;1.70;;;;;;;;;;4953144;28;20187;-80
2023/03/12 02:36:58;;;;;;;2.78;2.58;;;;;;;;;;4968305;28;20217;-80
2023/03/12 02:39:24;;;;;;;4.63;2.00;;;;;;;;;;4940085;28;20218;-80
2023/03/12 02:41:56;;;;;;;2.05;1.95;;;;;;;;;;4949700;28;20413;-80
2023/03/12 02:44:23;;;;;;;2.60;2.40;;;;;;;;;;4937536;28;20194;-80
2023/03/12 02:46:51;;;;;;;3.10;2.30;;;;;;;;;;4949458;29;20189;-81
2023/03/12 02:49:18;;;;;;;2.35;2.25;;;;;;;;;;4953939;28;20230;-80
2023/03/12 02:51:45;;;;;;;2.17;2.10;;;;;;;;;;4967179;28;20186;-79
2023/03/12 02:54:11;;;;;;;2.73;2.40;;;;;;;;;;4954884;28;20449;-80
2023/03/12 02:56:37;;;;;;;2.38;2.13;;;;;;;;;;4958715;28;20462;-80
2023/03/12 02:59:04;;;;;;;2.03;1.92;;;;;;;;;;4963583;28;20199;-81
2023/03/12 03:01:32;;;;;;;4.57;2.40;;;;;;;;;;4948898;28;20220;-79
2023/03/12 03:03:59;;;;;;;1.98;1.85;;;;;;;;;;4964404;28;20186;-80
2023/03/12 03:06:25;;;;;;;4.07;1.95;;;;;;;;;;4950003;28;20678;-79
2023/03/12 03:08:51;;;;;;;1.77;1.77;;;;;;;;;;4958136;28;20242;-81
2023/03/12 03:11:17;;;;;;;10.32;2.10;;;;;;;;;;4949397;29;20614;-80
2023/03/12 03:13:43;;;;;;;3.20;2.08;;;;;;;;;;4953285;28;20254;-80
2023/03/12 03:16:11;;;;;;;1.50;1.50;;;;;;;;;;4957739;29;20210;-80
2023/03/12 03:18:37;;;;;;;4.60;2.20;;;;;;;;;;4959320;28;20437;-79
2023/03/12 03:21:04;;;;;;;5.32;2.00;;;;;;;;;;4957580;28;20185;-81
2023/03/12 03:23:31;;;;;;;3.95;2.65;;;;;;;;;;4957736;28;20200;-80
2023/03/12 03:25:58;;;;;;;3.27;1.60;;;;;;;;;;4949455;28;20252;-81
2023/03/12 03:28:24;;;;;;;2.20;1.93;;;;;;;;;;4952313;28;20536;-81
2023/03/12 03:30:57;;;;;;;1.73;1.63;;;;;;;;;;4931988;28;20463;-80
2023/03/12 03:33:23;;;;;;;1.40;1.40;;;;;;;;;;4948297;28;20281;-80
2023/03/12 03:35:49;;;;;;;1.83;1.83;;;;;;;;;;4944599;28;20202;-81
2023/03/12 03:38:18;;;;;;;5.13;1.45;;;;;;;;;;4951128;28;20184;-82
2023/03/12 03:40:44;;;;;;;2.28;2.17;;;;;;;;;;4940582;28;20214;-81
2023/03/12 03:43:10;;;;;;;3.03;1.80;;;;;;;;;;4942909;28;20198;-81
2023/03/12 03:45:39;;;;;;;4.07;2.63;;;;;;;;;;4941811;28;20193;-82
2023/03/12 03:48:05;;;;;;;1.83;1.80;;;;;;;;;;4941564;28;20973;-81
2023/03/12 03:50:39;;;;;;;5.15;2.00;;;;;;;;;;4945016;28;20221;-83
2023/03/12 03:53:05;;;;;;;2.22;2.03;;;;;;;;;;4945261;28;20385;-83
2023/03/12 03:55:31;;;;;;;2.03;2.03;;;;;;;;;;4944585;28;20252;-83
2023/03/12 03:57:57;;;;;;;1.80;1.70;;;;;;;;;;4941241;28;20216;-84
2023/03/12 04:00:24;;;;;;;3.13;2.57;;;;;;;;;;4946061;28;20199;-83
2023/03/12 04:02:50;;;;;;;1.85;1.75;;;;;;;;;;4945982;29;20902;-84
2023/03/12 04:05:18;;;;;;;5.90;2.00;;;;;;;;;;4946059;28;20183;-82
2023/03/12 04:07:46;;;;;;;3.13;1.80;;;;;;;;;;4948348;28;20684;-83
2023/03/12 04:10:13;;;;;;;1.63;1.52;;;;;;;;;;4936696;29;20215;-84
2023/03/12 04:12:45;;;;;;;3.17;1.75;;;;;;;;;;4946006;28;20199;-83
2023/03/12 04:15:11;;;;;;;2.60;1.50;;;;;;;;;;4945738;28;20832;-82
2023/03/12 04:17:37;;;;;;;3.10;2.17;;;;;;;;;;4937802;28;20245;-83
2023/03/12 04:20:08;;;;;;;1.95;1.85;;;;;;;;;;4938986;28;20215;-84
2023/03/12 04:22:34;;;;;;;2.20;2.10;;;;;;;;;;4947909;28;20265;-83
2023/03/12 04:25:00;;;;;;;2.30;1.40;;;;;;;;;;4920055;28;20446;-82
2023/03/12 04:27:29;;;;;;;2.65;2.40;;;;;;;;;;4938197;28;20237;-84
2023/03/12 04:29:58;;;;;;;1.30;1.30;;;;;;;;;;4934455;28;20305;-83
2023/03/12 04:32:24;;;;;;;1.85;1.67;;;;;;;;;;4940241;29;20259;-82
2023/03/12 04:34:50;;;;;;;2.17;1.60;;;;;;;;;;4926941;28;20202;-83
2023/03/12 04:37:19;;;;;;;2.07;1.97;;;;;;;;;;4938017;28;20213;-81
2023/03/12 04:39:45;;;;;;;1.60;1.33;;;;;;;;;;4936929;28;21076;-84
2023/03/12 04:42:11;;;;;;;3.57;3.47;;;;;;;;;;4938396;28;20428;-83
2023/03/12 04:44:39;;;;;;;3.67;1.80;;;;;;;;;;4939332;28;20452;-82
2023/03/12 04:47:05;;;;;;;1.97;1.87;;;;;;;;;;4927332;29;21093;-83
2023/03/12 04:49:32;;;;;;;2.92;1.92;;;;;;;;;;4923231;28;20502;-80
2023/03/12 04:51:58;;;;;;;2.00;1.88;;;;;;;;;;4922838;29;20279;-82
2023/03/12 04:54:24;;;;;;;1.95;1.95;;;;;;;;;;4937101;28;20484;-82
2023/03/12 04:56:50;;;;;;;1.90;1.75;;;;;;;;;;4931822;28;20462;-82
2023/03/12 04:59:16;;;;;;;2.67;1.52;;;;;;;;;;4942807;28;20233;-81
2023/03/12 05:01:43;;;;;;;2.00;1.90;;;;;;;;;;4937134;28;20196;-82
2023/03/12 05:04:09;;;;;;;2.22;2.10;;;;;;;;;;4945295;28;20265;-81
2023/03/12 05:06:35;;;;;;;1.40;1.40;;;;;;;;;;4949019;28;20222;-81
2023/03/12 05:09:02;;;;;;;2.80;1.57;;;;;;;;;;4951887;28;20508;-81
2023/03/12 05:11:29;;;;;;;2.20;2.10;;;;;;;;;;4955020;28;20460;-81
2023/03/12 05:13:55;;;;;;;2.00;2.00;;;;;;;;;;4956761;28;20549;-81
2023/03/12 05:16:20;;;;;;;4.27;2.60;;;;;;;;;;4944423;28;20240;-81
2023/03/12 05:18:46;;;;;;;2.83;2.73;;;;;;;;;;4940247;28;20475;-81
2023/03/12 05:21:14;;;;;;;1.98;1.40;;;;;;;;;;4927451;28;20454;-82
2023/03/12 05:23:41;;;;;;;1.80;1.80;;;;;;;;;;4939356;28;20414;-81
2023/03/12 05:26:21;;;;;;;2.20;1.95;;;;;;;;;;4935784;28;20183;-81
2023/03/12 05:28:47;;;;;;;3.17;2.63;;;;;;;;;;4938439;28;20190;-83
2023/03/12 05:31:14;;;;;;;1.60;1.57;;;;;;;;;;4934851;28;20206;-82
2023/03/12 05:33:40;;;;;;;4.05;1.95;;;;;;;;;;4938778;28;20440;-82
2023/03/12 05:36:06;;;;;;;4.82;2.17;;;;;;;;;;4939405;28;20288;-81
2023/03/12 05:38:33;;;;;;;2.15;1.35;;;;;;;;;;4945100;28;21013;-82
2023/03/12 05:41:00;;;;;;;2.30;2.07;;;;;;;;;;4939051;28;20210;-82
2023/03/12 05:43:26;;;;;;;4.45;2.42;;;;;;;;;;4941747;28;20502;-81
2023/03/12 05:45:53;;;;;;;3.80;1.80;;;;;;;;;;4927232;28;20199;-82
2023/03/12 05:48:19;;;;;;;3.50;1.75;;;;;;;;;;4941913;28;20501;-82
2023/03/12 05:50:45;;;;;;;2.83;2.40;;;;;;;;;;4942925;28;20200;-82
2023/03/12 05:53:12;;;;;;;2.20;2.10;;;;;;;;;;4948398;28;20461;-82
2023/03/12 05:55:38;;;;;;;3.13;2.70;;;;;;;;;;4943023;28;20674;-82
2023/03/12 05:58:05;;;;;;;3.10;1.77;;;;;;;;;;4929663;29;21519;-83
2023/03/12 06:00:32;;;;;;;3.90;2.00;;;;;;;;;;4942269;28;20241;-82
2023/03/12 06:02:58;;;;;;;2.60;2.40;;;;;;;;;;4948884;28;20193;-83
2023/03/12 06:05:24;;;;;;;4.35;2.60;;;;;;;;;;4938794;28;21032;-82
2023/03/12 06:07:50;;;;;;;3.35;2.20;;;;;;;;;;4945268;28;20174;-82
2023/03/12 06:10:16;;;;;;;2.50;2.30;;;;;;;;;;4939213;28;20563;-82
2023/03/12 06:12:42;;;;;;;2.53;2.43;;;;;;;;;;4943339;28;20183;-82
2023/03/12 06:15:08;;;;;;;2.70;2.50;;;;;;;;;;4943104;28;20454;-82
2023/03/12 06:17:34;;;;;;;3.17;2.97;;;;;;;;;;4954154;29;20469;-82
2023/03/12 06:20:00;;;;;;;2.70;2.70;;;;;;;;;;4971304;28;20424;-81
2023/03/12 06:22:28;;;;;;;5.60;2.53;;;;;;;;;;4961680;28;20603;-82
2023/03/12 06:24:54;;;;;;;1.87;1.80;;;;;;;;;;4943324;28;20796;-81
2023/03/12 06:27:20;;;;;;;3.03;2.83;;;;;;;;;;4950700;28;20432;-81
2023/03/12 06:29:46;;;;;;;2.47;2.37;;;;;;;;;;4943528;28;20415;-82
2023/03/12 06:32:12;;;;;;;3.28;3.08;;;;;;;;;;4948854;28;20443;-83
2023/03/12 06:34:38;;;;;;;3.30;3.00;;;;;;;;;;4957779;29;20194;-82
2023/03/12 06:37:04;;;;;;;3.07;2.30;;;;;;;;;;4962196;28;20218;-83
2023/03/12 06:39:30;;;;;;;2.72;2.47;;;;;;;;;;4966659;28;20500;-82
2023/03/12 06:41:56;;;;;;;2.90;2.53;;;;;;;;;;4958945;28;20227;-83
2023/03/12 06:44:22;;;;;;;8.73;2.90;;;;;;;;;;4959438;28;20453;-82
2023/03/12 06:46:48;;;;;;;3.33;2.38;;;;;;;;;;4964790;28;20492;-82
2023/03/12 06:49:14;;;;;;;2.37;2.27;;;;;;;;;;4957357;28;20210;-82
2023/03/12 06:51:40;;;;;;;7.68;2.90;;;;;;;;;;4974267;28;20426;-83
2023/03/12 06:54:06;;;;;;;7.70;2.80;;;;;;;;;;4978581;28;20209;-82
2023/03/12 06:56:32;;;;;;;2.10;2.10;;;;;;;;;;4979774;28;20467;-82
2023/03/12 06:58:58;;;;;;;3.00;2.90;;;;;;;;;;4974729;28;20217;-82
2023/03/12 07:01:24;;;;;;;2.07;1.67;;;;;;;;;;4984197;28;20194;-82
2023/03/12 07:03:50;;;;;;;2.13;2.03;;;;;;;;;;4977479;28;20442;-81
2023/03/12 07:06:18;;;;;;;2.57;2.47;;;;;;;;;;4973623;28;20434;-82
2023/03/12 07:08:44;;;;;;;2.95;2.28;;;;;;;;;;4969893;28;20437;-82
2023/03/12 07:11:11;;;;;;;3.13;2.70;;;;;;;;;;4958750;28;20234;-82
2023/03/12 07:13:37;;;;;;;3.25;2.70;;;;;;;;;;4950505;28;20452;-82
2023/03/12 07:16:04;;;;;;;5.97;2.97;;;;;;;;;;4964283;28;20911;-82
2023/03/12 07:18:30;;;;;;;6.07;2.78;;;;;;;;;;4939739;28;20440;-82
2023/03/12 07:20:56;;;;;;;5.67;3.10;;;;;;;;;;4948447;28;20187;-82
2023/03/12 07:23:22;;;;;;;2.50;2.30;;;;;;;;;;4954187;28;20512;-83
2023/03/12 07:25:48;;;;;;;3.03;2.78;;;;;;;;;;4962386;28;20448;-82
2023/03/12 07:28:15;;;;;;;7.77;3.20;;;;;;;;;;4964518;28;20202;-81
2023/03/12 07:30:41;;;;;;;4.88;3.28;;;;;;;;;;4959133;28;20492;-81
2023/03/12 07:33:09;;;;;;;4.15;2.42;;;;;;;;;;4943881;28;20194;-82
2023/03/12 07:35:35;;;;;;;3.53;3.42;;;;;;;;;;4964425;28;20718;-81
2023/03/12 07:38:02;;;;;;;6.53;3.15;;;;;;;;;;4958506;28;20571;-82
2023/03/12 07:40:28;;;;;;;2.28;2.10;;;;;;;;;;4927010;29;20608;-81
2023/03/12 07:42:54;;;;;;;1.93;1.93;;;;;;;;;;4908192;29;20203;-82
2023/03/12 07:45:20;;;;;;;11.93;3.57;;;;;;;;;;4920237;29;20938;-82
2023/03/12 07:47:46;;;;;;;6.07;2.92;;;;;;;;;;4921142;29;20450;-82
2023/03/12 07:50:13;;;;;;;5.55;3.00;;;;;;;;;;4931206;29;20207;-82
2023/03/12 07:52:39;;;;;;;3.25;3.05;;;;;;;;;;4931655;29;20198;-81
2023/03/12 07:55:05;;;;;;;1.95;1.95;;;;;;;;;;4929728;29;20220;-82
2023/03/12 07:57:31;;;;;;;6.23;2.60;;;;;;;;;;4933672;29;20627;-83
2023/03/12 08:00:00;;;;;;;2.63;2.60;;;;;;;;;;4932432;29;20410;-83
2023/03/12 08:02:26;;;;;;;3.85;3.65;;;;;;;;;;4930466;29;20424;-82
2023/03/12 08:04:52;;;;;;;2.10;2.00;;;;;;;;;;4933665;29;20769;-82
2023/03/12 08:07:18;;;;;;;2.97;2.80;;;;;;;;;;4938351;29;20447;-82
2023/03/12 08:09:44;;;;;;;2.80;2.70;;;;;;;;;;4939629;29;20457;-82
2023/03/12 08:12:10;;;;;;;3.40;2.58;;;;;;;;;;4934552;28;20448;-81
2023/03/12 08:14:36;;;;;;;3.53;3.40;;;;;;;;;;4931909;29;20195;-81
2023/03/12 08:17:02;;;;;;;2.58;2.45;;;;;;;;;;4930675;29;20466;-82
2023/03/12 08:19:28;;;;;;;4.50;3.40;;;;;;;;;;4941156;29;20213;-83
2023/03/12 08:21:54;;;;;;;2.70;1.50;;;;;;;;;;4936939;29;20449;-83
2023/03/12 08:24:21;;;;;;;2.78;2.63;;;;;;;;;;4934454;29;20498;-82
2023/03/12 08:26:47;;;;;;;4.32;3.70;;;;;;;;;;4936220;29;20222;-83
2023/03/12 08:29:13;;;;;;;3.83;2.40;;;;;;;;;;4936996;29;20347;-81
2023/03/12 08:31:39;;;;;;;2.27;2.27;;;;;;;;;;4932599;29;20663;-82
2023/03/12 08:34:05;;;;;;;2.25;2.17;;;;;;;;;;4931849;29;20458;-82
2023/03/12 08:36:31;;;;;;;4.73;2.70;;;;;;;;;;4934895;29;20203;-80
2023/03/12 08:38:57;;;;;;;3.40;2.33;;;;;;;;;;4946144;28;20462;-81
2023/03/12 08:41:23;;;;;;;3.50;3.30;;;;;;;;;;4951697;28;20434;-82
2023/03/12 08:43:49;;;;;;;2.40;2.27;;;;;;;;;;4961482;28;20496;-81
2023/03/12 08:46:15;;;;;;;3.53;3.30;;;;;;;;;;4953955;28;20433;-81
2023/03/12 08:48:41;;;;;;;1.70;1.70;;;;;;;;;;4950100;28;20525;-80
2023/03/12 08:51:07;;;;;;;2.03;2.03;;;;;;;;;;4934864;28;20881;-81
2023/03/12 08:53:34;;;;;;;6.25;3.30;;;;;;;;;;4957069;28;20448;-82
2023/03/12 08:56:01;;;;;;;4.15;2.53;;;;;;;;;;4969006;28;20208;-81
2023/03/12 08:58:28;;;;;;;3.10;2.90;;;;;;;;;;4951519;28;20215;-81
2023/03/12 09:00:54;;;;;;;2.42;2.42;;;;;;;;;;4956083;28;20549;-81
2023/03/12 09:03:20;;;;;;;1.63;1.63;;;;;;;;;;4948398;28;20686;-82
2023/03/12 09:05:47;;;;;;;3.30;3.00;;;;;;;;;;4940584;29;20198;-80
2023/03/12 09:08:13;;;;;;;3.53;3.03;;;;;;;;;;4959559;28;20237;-83
2023/03/12 09:10:39;;;;;;;2.60;2.60;;;;;;;;;;4932173;28;20883;-79
2023/03/12 09:13:05;;;;;;;3.50;3.27;;;;;;;;;;4957345;28;20493;-81
2023/03/12 09:15:31;;;;;;;1.63;1.63;;;;;;;;;;4945746;28;20501;-82
2023/03/12 09:17:57;;;;;;;4.47;4.20;;;;;;;;;;4943861;28;20478;-80
2023/03/12 09:20:24;;;;;;;2.53;2.53;;;;;;;;;;4951114;28;20418;-82
2023/03/12 09:22:53;;;;;;;3.15;2.95;;;;;;;;;;4948749;28;20220;-82
2023/03/12 09:25:20;;;;;;;3.35;3.20;;;;;;;;;;4937895;28;20670;-82
2023/03/12 09:27:47;;;;;;;3.13;3.03;;;;;;;;;;4952976;28;20606;-80
2023/03/12 09:30:15;;;;;;;3.33;3.23;;;;;;;;;;4929063;29;20942;-82
2023/03/12 09:32:41;;;;;;;3.50;3.27;;;;;;;;;;4940001;28;20442;-80
2023/03/12 09:35:08;;;;;;;3.00;2.90;;;;;;;;;;4949602;29;20406;-83
2023/03/12 09:37:34;;;;;;;3.93;3.50;;;;;;;;;;4950052;28;20473;-81
2023/03/12 09:40:00;;;;;;;2.20;2.20;;;;;;;;;;4969921;28;20503;-82
2023/03/12 09:42:43;;;;;;;3.10;3.00;;;;;;;;;;4963617;28;20201;-81
2023/03/12 09:45:14;;;;;;;4.17;3.83;;;;;;;;;;4949139;28;20414;-83
2023/03/12 09:47:46;;;;;;;3.85;3.65;;;;;;;;;;4946133;28;20857;-82
2023/03/12 09:50:19;;;;;;;3.53;3.30;;;;;;;;;;4952149;29;20202;-81
2023/03/12 09:52:50;;;;;;;3.90;3.70;;;;;;;;;;4946257;28;20449;-83
2023/03/12 09:55:18;;;;;;;6.30;5.90;;;;;;;;;;4949705;28;20186;-81
2023/03/12 09:57:44;;;;;;;2.85;2.85;;;;;;;;;;4949086;28;20502;-81
2023/03/12 10:00:12;;;;;;;4.68;4.47;;;;;;;;;;4948306;29;20605;-82
2023/03/12 10:02:44;;;;;;;5.60;5.30;;;;;;;;;;4957386;28;20684;-81
2023/03/12 10:05:29;;;;;;;6.63;5.75;;;;;;;;;;4953111;28;20426;-80
2023/03/12 10:07:58;;;;;;;5.22;4.93;;;;;;;;;;4955096;28;20265;-81
2023/03/12 10:10:35;;;;;;;4.23;4.03;;;;;;;;;;4944013;29;20617;-80
2023/03/12 10:13:13;;;;;;;4.70;4.35;;;;;;;;;;4946896;28;20545;-80
2023/03/12 10:15:45;;;;;;;5.40;4.93;;;;;;;;;;4952823;28;20778;-80
2023/03/12 10:18:24;;;;;;;3.92;3.72;;;;;;;;;;4947334;28;20592;-77
2023/03/12 10:20:52;;;;;;;3.33;3.30;;;;;;;;;;4954278;28;20213;-81
2023/03/12 10:23:30;;;;;;;4.83;4.50;;;;;;;;;;4944174;28;20545;-82
2023/03/12 10:25:55;;;;;;;4.45;4.35;;;;;;;;;;4938800;29;20434;-80
2023/03/12 10:28:35;;;;;;;6.10;5.80;;;;;;;;;;4943709;28;20210;-81
2023/03/12 10:31:04;;;;;;;5.03;4.63;;;;;;;;;;4925995;29;20475;-76
2023/03/12 10:33:57;;;;;;;4.45;4.22;;;;;;;;;;4947201;28;20273;-81
2023/03/12 10:36:43;;;;;;;4.50;4.40;;;;;;;;;;4954050;28;20257;-81
2023/03/12 10:39:13;;;;;;;5.20;5.00;;;;;;;;;;4914223;29;20478;-81
2023/03/12 10:41:41;;;;;;;3.15;3.05;;;;;;;;;;4934951;28;20293;-80
2023/03/12 10:44:07;;;;;;;3.93;3.83;;;;;;;;;;4941564;28;20222;-80
2023/03/12 10:46:36;;;;;;;3.50;3.50;;;;;;;;;;4927389;28;20455;-82
2023/03/12 10:49:21;;;;;;;4.90;4.50;;;;;;;;;;4939132;28;20204;-83
2023/03/12 10:51:53;;;;;;;3.53;3.33;;;;;;;;;;4934991;28;20538;-83
2023/03/12 10:54:29;;;;;;;3.72;3.63;;;;;;;;;;4935170;29;20435;-81
2023/03/12 10:56:55;;;;;;;3.90;3.60;;;;;;;;;;4934817;28;20242;-81
2023/03/12 10:59:22;;;;;;;6.10;5.07;;;;;;;;;;4935464;28;20531;-83
2023/03/12 11:01:50;;;;;;;5.20;4.50;;;;;;;;;;4934757;28;20456;-83
2023/03/12 11:04:22;;;;;;;4.30;4.00;;;;;;;;;;4937862;28;20437;-81
2023/03/12 11:07:06;;;;;;;5.80;5.30;;;;;;;;;;4933403;28;20945;-82
2023/03/12 11:09:33;;;;;;;3.73;3.73;;;;;;;;;;4935749;28;20422;-79
2023/03/12 11:11:59;;;;;;;5.27;5.07;;;;;;;;;;4933575;28;20439;-82
2023/03/12 11:14:29;;;;;;;5.00;4.80;;;;;;;;;;4940516;28;20626;-81
2023/03/12 11:16:56;;;;;;;5.13;4.90;;;;;;;;;;4928621;28;21432;-81
2023/03/12 11:19:40;;;;;;;5.10;4.63;;;;;;;;;;4937892;29;20861;-83
2023/03/12 11:22:14;;;;;;;4.63;4.50;;;;;;;;;;4927681;28;20488;-82
2023/03/12 11:25:04;;;;;;;5.00;4.60;;;;;;;;;;4922731;28;20577;-82
2023/03/12 11:27:49;;;;;;;5.47;5.10;;;;;;;;;;4877142;28;20458;-84
2023/03/12 11:30:17;;;;;;;6.10;5.87;;;;;;;;;;4933857;28;20462;-83
2023/03/12 11:33:00;;;;;;;6.80;6.10;;;;;;;;;;4932064;28;20536;-82
2023/03/12 11:35:34;;;;;;;5.73;5.43;;;;;;;;;;4937337;28;20435;-83
2023/03/12 11:38:06;;;;;;;9.13;6.50;;;;;;;;;;4926792;29;20502;-82
2023/03/12 11:40:47;;;;;;;6.67;6.37;;;;;;;;;;4927930;29;20455;-83
2023/03/12 11:43:16;;;;;;;9.70;7.47;;;;;;;;;;4920774;29;20558;-85
2023/03/12 11:45:47;;;;;;;8.47;5.37;;;;;;;;;;4918800;29;20470;-84
2023/03/12 11:48:22;;;;;;;6.00;5.60;;;;;;;;;;4921585;29;20427;-81
2023/03/12 11:51:08;;;;;;;5.90;5.53;;;;;;;;;;4937021;28;20430;-83
2023/03/12 11:53:44;;;;;;;6.27;5.87;;;;;;;;;;4929384;29;20447;-84
2023/03/12 11:56:21;;;;;;;7.00;6.50;;;;;;;;;;4933639;29;20430;-84
2023/03/12 11:58:56;;;;;;;6.13;5.73;;;;;;;;;;4925688;29;20443;-84
2023/03/12 12:01:41;;;;;;;6.30;5.70;;;;;;;;;;4927960;29;20414;-84
2023/03/12 12:04:29;;;;;;;7.53;6.83;;;;;;;;;;4925098;29;20434;-84
2023/03/12 12:06:55;;;;;;;7.30;6.60;;;;;;;;;;4928327;29;20997;-81
2023/03/12 12:09:24;;;;;;;7.00;6.40;;;;;;;;;;4941577;28;20419;-82
2023/03/12 12:11:57;;;;;;;6.77;6.17;;;;;;;;;;4941014;29;20450;-83
2023/03/12 12:14:29;;;;;;;7.93;7.20;;;;;;;;;;4933484;28;20439;-84
2023/03/12 12:16:58;;;;;;;8.10;7.50;;;;;;;;;;4941375;28;20474;-84
2023/03/12 12:19:32;;;;;;;7.67;7.17;;;;;;;;;;4930856;29;20486;-82
2023/03/12 12:22:03;;;;;;;10.23;8.07;;;;;;;;;;4918741;29;20977;-81
2023/03/12 12:24:39;;;;;;;8.83;7.93;;;;;;;;;;4924978;29;20427;-83
2023/03/12 12:27:05;;;;;;;8.57;7.40;;;;;;;;;;4921881;29;20943;-81
2023/03/12 12:29:31;;;;;;;9.07;8.37;;;;;;;;;;4932407;29;20470;-82
2023/03/12 12:31:58;;;;;;;12.80;7.60;;;;;;;;;;4929749;29;20443;-82
2023/03/12 12:34:40;;;;;;;10.90;9.80;;;;;;;;;;4929588;29;20832;-80
2023/03/12 12:37:26;;;;;;;10.80;9.70;;;;;;;;;;4940436;28;20492;-82
2023/03/12 12:40:10;;;;;;;11.23;9.60;;;;;;;;;;4939805;28;20561;-81
2023/03/12 12:42:44;;;;;;;10.50;9.50;;;;;;;;;;4962137;28;20433;-83
2023/03/12 12:45:13;;;;;;;10.47;9.47;;;;;;;;;;4961803;28;20421;-83
2023/03/12 12:48:00;;;;;;;10.27;9.17;;;;;;;;;;4955718;28;20517;-82
2023/03/12 12:50:28;;;;;;;10.73;9.43;;;;;;;;;;4939704;28;20414;-82
2023/03/12 12:52:59;;;;;;;13.57;9.37;;;;;;;;;;4929764;29;20807;-82
2023/03/12 12:55:30;;;;;;;18.30;10.50;;;;;;;;;;4955095;28;20430;-81
2023/03/12 12:58:02;;;;;;;12.63;10.87;;;;;;;;;;4935683;28;20881;-80
2023/03/12 13:00:41;;;;;;;10.50;9.00;;;;;;;;;;4954446;28;20517;-80
2023/03/12 13:03:11;;;;;;;19.23;11.37;;;;;;;;;;4940450;28;20475;-80
2023/03/12 13:05:37;;;;;;;19.60;11.33;;;;;;;;;;4951539;28;20433;-81
2023/03/12 13:08:04;;;;;;;20.30;9.20;;;;;;;;;;4963752;28;20429;-81
2023/03/12 13:10:33;;;;;;;10.50;9.47;;;;;;;;;;4958151;28;20438;-80
2023/03/12 13:13:00;;;;;;;10.37;9.40;;;;;;;;;;4946818;28;20457;-82
2023/03/12 13:15:29;;;;;;;11.40;10.00;;;;;;;;;;4946880;28;20521;-79
2023/03/12 13:17:58;;;;;;;15.50;8.97;;;;;;;;;;4952466;28;20484;-79
2023/03/12 13:20:30;;;;;;;17.40;9.13;;;;;;;;;;4944185;28;20466;-81
2023/03/12 13:23:02;;;;;;;16.57;8.60;;;;;;;;;;4935511;28;20450;-81
2023/03/12 13:25:47;;;;;;;11.77;7.93;;;;;;;;;;4937407;28;20509;-82
2023/03/12 13:28:29;;;;;;;12.63;7.07;;;;;;;;;;4933208;28;20552;-82
2023/03/12 13:30:58;;;;;;;13.63;7.07;;;;;;;;;;4919430;28;20494;-81
2023/03/12 13:33:46;;;;;;;21.53;7.70;;;;;;;;;;4937100;28;20427;-79
2023/03/12 13:36:15;;;;;;;9.93;6.97;;;;;;;;;;4932022;28;20451;-82
2023/03/12 13:39:00;;;;;;;12.10;5.70;;;;;;;;;;4936239;28;20466;-81
2023/03/12 13:41:35;;;;;;;19.17;8.60;;;;;;;;;;4935383;28;20916;-82
2023/03/12 13:44:20;;;;;;;14.50;7.70;;;;;;;;;;4935984;28;20934;-83
2023/03/12 13:46:46;;;;;;;19.80;8.40;;;;;;;;;;4931479;28;20588;-81
2023/03/12 13:49:21;;;;;;;13.77;8.57;;;;;;;;;;4933587;28;20450;-82
2023/03/12 13:52:17;;;;;;;15.70;8.10;;;;;;;;;;4931285;28;20448;-81
2023/03/12 13:54:45;;;;;;;14.53;8.90;;;;;;;;;;4904666;28;20550;-82
2023/03/12 13:57:21;;;;;;;19.07;10.50;;;;;;;;;;4930728;28;21891;-81
2023/03/12 13:59:49;;;;;;;25.87;8.27;;;;;;;;;;4938877;28;21181;-83
2023/03/12 14:02:20;;;;;;;14.43;7.43;;;;;;;;;;4926937;28;20462;-80
2023/03/12 14:04:46;;;;;;;20.90;8.67;;;;;;;;;;4935822;28;20426;-86
2023/03/12 14:07:26;;;;;;;15.20;6.90;;;;;;;;;;4927923;28;20473;-80
2023/03/12 14:10:00;;;;;;;15.30;8.33;;;;;;;;;;4934109;28;20446;-80
2023/03/12 14:12:35;;;;;;;16.97;8.57;;;;;;;;;;4938454;28;20463;-81
2023/03/12 14:15:06;;;;;;;19.57;9.23;;;;;;;;;;4934067;28;21097;-81
2023/03/12 14:17:33;;;;;;;14.23;6.90;;;;;;;;;;4939051;28;20469;-81
2023/03/12 14:20:06;;;;;;;14.43;10.30;;;;;;;;;;4928222;28;20451;-79
2023/03/12 14:22:33;;;;;;;18.63;7.03;;;;;;;;;;4917907;28;20458;-81
2023/03/12 14:25:06;;;;;;;17.33;7.90;;;;;;;;;;4937282;28;20443;-82
2023/03/12 14:27:33;;;;;;;18.03;8.13;;;;;;;;;;4943429;28;20548;-79
2023/03/12 14:30:15;;;;;;;16.53;7.23;;;;;;;;;;4940363;28;20534;-79
2023/03/12 14:32:42;;;;;;;12.13;7.73;;;;;;;;;;4935512;28;20918;-79
2023/03/12 14:35:28;;;;;;;15.67;7.90;;;;;;;;;;4939369;28;20589;-80
2023/03/12 14:37:57;;;;;;;17.63;7.30;;;;;;;;;;4931396;28;20626;-81
2023/03/12 14:40:32;;;;;;;15.10;8.33;;;;;;;;;;4935428;28;20462;-83
2023/03/12 14:43:04;;;;;;;16.13;7.63;;;;;;;;;;4928156;29;20964;-79
2023/03/12 14:45:42;;;;;;;15.80;6.37;;;;;;;;;;4933779;28;20469;-80
2023/03/12 14:48:10;;;;;;;16.57;7.33;;;;;;;;;;4938805;29;20803;-81
2023/03/12 14:50:39;;;;;;;10.53;5.40;;;;;;;;;;4936325;28;20453;-81
2023/03/12 14:53:17;;;;;;;20.37;5.77;;;;;;;;;;4940608;28;20790;-81